Time;durP1;ratioP1;P1;durP2;ratioP2;P2;SDS_P1;SDS_P2;PMS_P1;PMS_P2;Temp;Humidity;BMP_temperature;BMP_pressure;BME280_temperature;BME280_humidity;BME280_pressure;Samples;Min_cycle;Max_cycle;Signal;HPM_P1;HPM_P2
2022/04/07 00:00:57;;;;;;;2.40;1.10;;;;;;;;;;5038898;28;20047;-83
2022/04/07 00:03:22;;;;;;;1.60;1.00;;;;;;;;;;5040369;28;20042;-83
2022/04/07 00:05:47;;;;;;;3.22;1.15;;;;;;;;;;5038592;28;20204;-83
2022/04/07 00:08:13;;;;;;;3.30;0.90;;;;;;;;;;5039596;28;20037;-83
2022/04/07 00:10:38;;;;;;;1.42;1.10;;;;;;;;;;5022287;28;20060;-83
2022/04/07 00:13:03;;;;;;;1.50;1.00;;;;;;;;;;5039208;28;20491;-84
2022/04/07 00:15:28;;;;;;;1.80;1.17;;;;;;;;;;5039447;28;20076;-84
2022/04/07 00:17:54;;;;;;;1.45;1.00;;;;;;;;;;5039709;28;20533;-83
2022/04/07 00:20:20;;;;;;;1.70;1.08;;;;;;;;;;5039125;28;20033;-84
2022/04/07 00:22:47;;;;;;;1.23;1.00;;;;;;;;;;5039698;28;20057;-84
2022/04/07 00:25:13;;;;;;;1.20;1.00;;;;;;;;;;5039003;28;20036;-84
2022/04/07 00:27:38;;;;;;;2.13;1.10;;;;;;;;;;5039884;28;20056;-84
2022/04/07 00:30:04;;;;;;;1.30;0.98;;;;;;;;;;5039880;28;20478;-84
2022/04/07 00:32:29;;;;;;;1.50;1.15;;;;;;;;;;5039608;28;20112;-83
2022/04/07 00:34:56;;;;;;;1.88;1.20;;;;;;;;;;5038521;28;20402;-84
2022/04/07 00:37:23;;;;;;;1.38;1.00;;;;;;;;;;5039279;28;20018;-83
2022/04/07 00:39:48;;;;;;;1.92;1.10;;;;;;;;;;5039015;28;20072;-83
2022/04/07 00:42:13;;;;;;;1.48;1.00;;;;;;;;;;5039327;28;20029;-84
2022/04/07 00:44:38;;;;;;;2.72;1.10;;;;;;;;;;5037934;28;20068;-84
2022/04/07 00:47:03;;;;;;;2.35;1.05;;;;;;;;;;5039091;28;20033;-84
2022/04/07 00:49:29;;;;;;;0.82;0.70;;;;;;;;;;5038962;28;20033;-84
2022/04/07 00:51:54;;;;;;;1.13;0.90;;;;;;;;;;5037835;28;20048;-84
2022/04/07 00:54:19;;;;;;;0.90;0.80;;;;;;;;;;5038667;28;20452;-83
2022/04/07 00:56:44;;;;;;;1.58;0.90;;;;;;;;;;5039170;28;20026;-84
2022/04/07 00:59:10;;;;;;;1.20;0.82;;;;;;;;;;5037307;28;20033;-84
2022/04/07 01:01:35;;;;;;;0.80;0.80;;;;;;;;;;5037329;28;20069;-84
2022/04/07 01:04:00;;;;;;;1.70;0.90;;;;;;;;;;5038724;28;20034;-83
2022/04/07 01:06:26;;;;;;;0.98;0.80;;;;;;;;;;5037560;28;20025;-83
2022/04/07 01:08:51;;;;;;;1.80;0.90;;;;;;;;;;5038688;28;20041;-84
2022/04/07 01:11:16;;;;;;;4.43;0.95;;;;;;;;;;5038647;28;20172;-83
2022/04/07 01:13:42;;;;;;;1.73;1.10;;;;;;;;;;5038976;28;20156;-83
2022/04/07 01:16:07;;;;;;;1.60;0.95;;;;;;;;;;5037120;28;20409;-83
2022/04/07 01:18:32;;;;;;;1.88;0.90;;;;;;;;;;5038774;28;20033;-83
2022/04/07 01:20:57;;;;;;;2.58;1.05;;;;;;;;;;5020775;28;20033;-83
2022/04/07 01:23:22;;;;;;;1.33;1.00;;;;;;;;;;5038369;28;20076;-84
2022/04/07 01:25:49;;;;;;;1.15;1.00;;;;;;;;;;5038228;28;20116;-83
2022/04/07 01:28:14;;;;;;;1.42;0.95;;;;;;;;;;5038653;28;20037;-83
2022/04/07 01:30:39;;;;;;;1.42;1.00;;;;;;;;;;5037917;28;20061;-83
2022/04/07 01:33:06;;;;;;;1.15;1.00;;;;;;;;;;5037215;28;20025;-83
2022/04/07 01:35:32;;;;;;;1.30;1.10;;;;;;;;;;5038130;28;20039;-84
2022/04/07 01:37:57;;;;;;;1.45;1.13;;;;;;;;;;5038136;28;20021;-83
2022/04/07 01:40:22;;;;;;;2.55;1.20;;;;;;;;;;5038002;28;20095;-83
2022/04/07 01:42:48;;;;;;;2.63;1.20;;;;;;;;;;5038187;28;20043;-83
2022/04/07 01:45:13;;;;;;;1.70;1.20;;;;;;;;;;5037576;28;20033;-83
2022/04/07 01:47:38;;;;;;;1.23;1.00;;;;;;;;;;5035890;28;20379;-83
2022/04/07 01:50:04;;;;;;;2.47;1.02;;;;;;;;;;5036908;28;20048;-83
2022/04/07 01:52:29;;;;;;;1.90;1.15;;;;;;;;;;5038240;28;20061;-83
2022/04/07 01:54:54;;;;;;;1.10;1.00;;;;;;;;;;5037617;28;20025;-84
2022/04/07 01:57:23;;;;;;;2.08;1.10;;;;;;;;;;5038021;28;20433;-83
2022/04/07 01:59:48;;;;;;;1.40;1.15;;;;;;;;;;5036679;28;20042;-83
2022/04/07 02:02:13;;;;;;;1.27;1.00;;;;;;;;;;5037844;28;20025;-82
2022/04/07 02:04:39;;;;;;;1.73;1.10;;;;;;;;;;5037118;28;20505;-83
2022/04/07 02:07:04;;;;;;;1.05;0.93;;;;;;;;;;5036204;28;20133;-83
2022/04/07 02:09:33;;;;;;;1.00;0.90;;;;;;;;;;5037850;28;20032;-83
2022/04/07 02:12:01;;;;;;;1.23;0.90;;;;;;;;;;5036164;28;20032;-83
2022/04/07 02:14:26;;;;;;;1.95;1.13;;;;;;;;;;5037610;28;20112;-84
2022/04/07 02:16:51;;;;;;;1.67;1.02;;;;;;;;;;5036833;28;20110;-83
2022/04/07 02:19:17;;;;;;;2.92;1.10;;;;;;;;;;5037162;28;20041;-83
2022/04/07 02:21:42;;;;;;;1.80;1.02;;;;;;;;;;5037290;28;20080;-84
2022/04/07 02:24:09;;;;;;;2.05;0.93;;;;;;;;;;5036850;28;20037;-84
2022/04/07 02:26:34;;;;;;;2.92;1.00;;;;;;;;;;5038250;28;20041;-84
2022/04/07 02:28:59;;;;;;;1.13;1.02;;;;;;;;;;5036932;28;20040;-84
2022/04/07 02:31:24;;;;;;;1.58;1.10;;;;;;;;;;5035982;28;20072;-84
2022/04/07 02:33:50;;;;;;;2.92;1.10;;;;;;;;;;5036426;28;20399;-83
2022/04/07 02:36:17;;;;;;;2.65;1.20;;;;;;;;;;5035456;28;20025;-84
2022/04/07 02:38:43;;;;;;;1.63;1.20;;;;;;;;;;5036816;28;20026;-84
2022/04/07 02:41:08;;;;;;;1.50;1.13;;;;;;;;;;5035703;28;20073;-84
2022/04/07 02:43:33;;;;;;;1.13;0.90;;;;;;;;;;5037122;28;20040;-84
2022/04/07 02:45:59;;;;;;;1.30;1.10;;;;;;;;;;5035452;28;20393;-84
2022/04/07 02:48:24;;;;;;;1.10;1.00;;;;;;;;;;5036865;28;20038;-84
2022/04/07 02:50:49;;;;;;;2.42;1.20;;;;;;;;;;5035680;28;20065;-83
2022/04/07 02:53:14;;;;;;;1.85;1.17;;;;;;;;;;5036618;28;20041;-84
2022/04/07 02:55:40;;;;;;;2.10;1.05;;;;;;;;;;5036943;28;20095;-84
2022/04/07 02:58:05;;;;;;;1.58;1.00;;;;;;;;;;5037150;28;20049;-84
2022/04/07 03:00:30;;;;;;;2.22;1.00;;;;;;;;;;5035478;28;20245;-84
2022/04/07 03:02:55;;;;;;;2.75;1.17;;;;;;;;;;5035588;28;20041;-83
2022/04/07 03:05:20;;;;;;;2.28;1.30;;;;;;;;;;5036770;28;20535;-83
2022/04/07 03:07:46;;;;;;;1.92;1.20;;;;;;;;;;5037049;28;20038;-83
2022/04/07 03:10:11;;;;;;;1.75;1.10;;;;;;;;;;5036144;28;20033;-83
2022/04/07 03:12:37;;;;;;;1.42;0.90;;;;;;;;;;5036614;28;20064;-84
2022/04/07 03:15:03;;;;;;;0.90;0.68;;;;;;;;;;5035287;28;20044;-84
2022/04/07 03:17:28;;;;;;;0.73;0.63;;;;;;;;;;5035671;28;20405;-84
2022/04/07 03:19:53;;;;;;;1.00;0.90;;;;;;;;;;5034925;28;20038;-84
2022/04/07 03:22:19;;;;;;;2.33;0.95;;;;;;;;;;5036455;28;20041;-83
2022/04/07 03:24:44;;;;;;;1.50;0.98;;;;;;;;;;5036181;28;20034;-83
2022/04/07 03:27:09;;;;;;;1.00;0.90;;;;;;;;;;5036850;28;20032;-83
2022/04/07 03:29:35;;;;;;;1.25;0.98;;;;;;;;;;5035823;28;20566;-83
2022/04/07 03:32:00;;;;;;;1.30;1.10;;;;;;;;;;5035963;28;20034;-83
2022/04/07 03:34:25;;;;;;;1.25;0.70;;;;;;;;;;5036645;28;20402;-83
2022/04/07 03:36:50;;;;;;;1.10;0.85;;;;;;;;;;5035196;28;20033;-84
2022/04/07 03:39:16;;;;;;;0.52;0.52;;;;;;;;;;5036634;28;20038;-83
2022/04/07 03:41:41;;;;;;;0.90;0.60;;;;;;;;;;5034407;28;20109;-83
2022/04/07 03:44:09;;;;;;;0.93;0.55;;;;;;;;;;5034455;28;20489;-83
2022/04/07 03:46:35;;;;;;;1.00;0.60;;;;;;;;;;5036066;28;20120;-84
2022/04/07 03:49:00;;;;;;;1.42;0.60;;;;;;;;;;5036406;28;20060;-83
2022/04/07 03:51:26;;;;;;;0.50;0.50;;;;;;;;;;5035291;28;20056;-83
2022/04/07 03:53:51;;;;;;;1.30;0.60;;;;;;;;;;5035044;28;20474;-83
2022/04/07 03:56:16;;;;;;;2.28;0.60;;;;;;;;;;5035711;28;20492;-83
2022/04/07 03:58:42;;;;;;;1.77;0.60;;;;;;;;;;5035732;28;20033;-83
2022/04/07 04:01:07;;;;;;;0.88;0.50;;;;;;;;;;5035231;28;20052;-83
2022/04/07 04:03:32;;;;;;;0.50;0.50;;;;;;;;;;5036443;28;20064;-83
2022/04/07 04:05:57;;;;;;;0.95;0.68;;;;;;;;;;5034417;28;20041;-83
2022/04/07 04:08:23;;;;;;;1.75;0.60;;;;;;;;;;5036356;28;20037;-83
2022/04/07 04:10:48;;;;;;;0.82;0.60;;;;;;;;;;5037320;28;20037;-83
2022/04/07 04:13:13;;;;;;;1.17;0.55;;;;;;;;;;5038920;28;20040;-83
2022/04/07 04:15:38;;;;;;;0.60;0.60;;;;;;;;;;5037770;28;20500;-83
2022/04/07 04:18:04;;;;;;;0.75;0.70;;;;;;;;;;5039601;28;20034;-83
2022/04/07 04:20:29;;;;;;;0.80;0.60;;;;;;;;;;5038523;28;20041;-83
2022/04/07 04:22:55;;;;;;;0.40;0.40;;;;;;;;;;5022108;28;20147;-83
2022/04/07 04:25:21;;;;;;;0.70;0.70;;;;;;;;;;5039094;28;20037;-83
2022/04/07 04:27:46;;;;;;;1.23;0.50;;;;;;;;;;5039854;28;20048;-84
2022/04/07 04:30:13;;;;;;;0.63;0.60;;;;;;;;;;5039492;28;20038;-84
2022/04/07 04:32:38;;;;;;;0.60;0.60;;;;;;;;;;5038403;28;20413;-84
2022/04/07 04:35:05;;;;;;;2.28;0.75;;;;;;;;;;5039299;28;20037;-83
2022/04/07 04:37:30;;;;;;;0.60;0.60;;;;;;;;;;5038070;28;20056;-83
2022/04/07 04:39:55;;;;;;;1.15;0.80;;;;;;;;;;5039017;28;20034;-84
2022/04/07 04:42:21;;;;;;;1.17;0.80;;;;;;;;;;5039236;28;20099;-83
2022/04/07 04:44:46;;;;;;;0.95;0.70;;;;;;;;;;5037424;28;20052;-83
2022/04/07 04:47:11;;;;;;;0.93;0.80;;;;;;;;;;5038160;28;20528;-83
2022/04/07 04:49:37;;;;;;;0.75;0.75;;;;;;;;;;5037921;28;20029;-83
2022/04/07 04:52:02;;;;;;;1.02;0.80;;;;;;;;;;5037862;28;20040;-83
2022/04/07 04:54:27;;;;;;;0.70;0.70;;;;;;;;;;5038344;28;20037;-83
2022/04/07 04:56:52;;;;;;;0.90;0.70;;;;;;;;;;5037539;28;20036;-83
2022/04/07 04:59:18;;;;;;;1.23;0.98;;;;;;;;;;5040170;28;20033;-83
2022/04/07 05:01:43;;;;;;;0.93;0.80;;;;;;;;;;5038974;28;20042;-83
2022/04/07 05:04:08;;;;;;;0.95;0.70;;;;;;;;;;5040498;28;20041;-84
2022/04/07 05:06:33;;;;;;;0.60;0.60;;;;;;;;;;5038579;28;20037;-84
2022/04/07 05:08:59;;;;;;;0.60;0.60;;;;;;;;;;5038901;28;20029;-84
2022/04/07 05:11:24;;;;;;;1.13;0.60;;;;;;;;;;5044268;28;20580;-84
2022/04/07 05:13:50;;;;;;;0.43;0.43;;;;;;;;;;5048387;28;20091;-84
2022/04/07 05:16:16;;;;;;;2.28;0.50;;;;;;;;;;5047463;28;20056;-84
2022/04/07 05:18:41;;;;;;;0.55;0.55;;;;;;;;;;5047973;28;20051;-83
2022/04/07 05:21:06;;;;;;;0.57;0.50;;;;;;;;;;5047689;28;20044;-83
2022/04/07 05:23:32;;;;;;;0.65;0.65;;;;;;;;;;5048952;28;20060;-83
2022/04/07 05:25:57;;;;;;;0.52;0.50;;;;;;;;;;5050198;28;20043;-83
2022/04/07 05:28:23;;;;;;;0.60;0.60;;;;;;;;;;5049499;28;20017;-84
2022/04/07 05:30:48;;;;;;;1.17;0.55;;;;;;;;;;5049454;28;20116;-83
2022/04/07 05:33:13;;;;;;;0.60;0.52;;;;;;;;;;5047429;28;20025;-83
2022/04/07 05:35:38;;;;;;;1.90;1.42;;;;;;;;;;5050394;28;20037;-83
2022/04/07 05:38:04;;;;;;;2.88;1.90;;;;;;;;;;5048795;28;20029;-83
2022/04/07 05:40:29;;;;;;;4.07;1.90;;;;;;;;;;5048539;28;20093;-83
2022/04/07 05:42:54;;;;;;;3.03;2.22;;;;;;;;;;5047807;28;20044;-83
2022/04/07 05:45:19;;;;;;;3.40;1.67;;;;;;;;;;5037557;28;20069;-83
2022/04/07 05:47:45;;;;;;;2.60;2.00;;;;;;;;;;5036679;28;20057;-83
2022/04/07 05:50:10;;;;;;;4.05;2.13;;;;;;;;;;5036609;28;20040;-83
2022/04/07 05:52:35;;;;;;;4.10;1.60;;;;;;;;;;5037854;28;20079;-84
2022/04/07 05:55:00;;;;;;;3.35;1.88;;;;;;;;;;5038248;28;20065;-83
2022/04/07 05:57:26;;;;;;;3.53;2.10;;;;;;;;;;5037350;28;20037;-84
2022/04/07 05:59:51;;;;;;;4.90;2.60;;;;;;;;;;5037604;28;20053;-83
2022/04/07 06:02:16;;;;;;;2.85;1.90;;;;;;;;;;5037688;28;20072;-83
2022/04/07 06:04:41;;;;;;;2.70;1.52;;;;;;;;;;5037647;28;20045;-83
2022/04/07 06:07:06;;;;;;;1.80;1.42;;;;;;;;;;5037740;28;20033;-83
2022/04/07 06:09:33;;;;;;;2.20;1.67;;;;;;;;;;5037458;28;20112;-83
2022/04/07 06:11:58;;;;;;;4.20;1.75;;;;;;;;;;5037538;28;20037;-82
2022/04/07 06:14:23;;;;;;;3.47;1.92;;;;;;;;;;5036081;28;20036;-85
2022/04/07 06:16:48;;;;;;;3.08;2.13;;;;;;;;;;5036077;28;20546;-83
2022/04/07 06:19:14;;;;;;;3.45;1.73;;;;;;;;;;5038250;28;20037;-82
2022/04/07 06:21:39;;;;;;;2.60;1.80;;;;;;;;;;5038178;28;20132;-84
2022/04/07 06:24:04;;;;;;;3.30;2.05;;;;;;;;;;5038002;28;20064;-83
2022/04/07 06:26:29;;;;;;;3.55;2.45;;;;;;;;;;5037992;28;20485;-83
2022/04/07 06:28:55;;;;;;;2.70;2.08;;;;;;;;;;5037944;28;20033;-83
2022/04/07 06:31:20;;;;;;;3.00;1.98;;;;;;;;;;5036701;28;20195;-84
2022/04/07 06:33:45;;;;;;;1.85;1.35;;;;;;;;;;5034084;28;20527;-82
2022/04/07 06:36:11;;;;;;;2.50;1.52;;;;;;;;;;5034362;28;20083;-82
2022/04/07 06:38:36;;;;;;;2.00;1.33;;;;;;;;;;5035779;28;20033;-82
2022/04/07 06:41:01;;;;;;;3.78;2.00;;;;;;;;;;5036560;28;20065;-84
2022/04/07 06:43:26;;;;;;;2.55;1.67;;;;;;;;;;5036509;28;20029;-82
2022/04/07 06:45:52;;;;;;;3.03;1.95;;;;;;;;;;5034413;28;20508;-82
2022/04/07 06:48:20;;;;;;;3.78;2.50;;;;;;;;;;5035944;28;20499;-82
2022/04/07 06:50:45;;;;;;;3.17;2.10;;;;;;;;;;5035957;28;20052;-82
2022/04/07 06:53:12;;;;;;;2.67;2.00;;;;;;;;;;5034425;28;20028;-82
2022/04/07 06:55:37;;;;;;;3.20;1.70;;;;;;;;;;5035862;28;20116;-82
2022/04/07 06:58:02;;;;;;;2.55;1.45;;;;;;;;;;5036134;28;20048;-82
2022/04/07 07:00:27;;;;;;;1.52;1.25;;;;;;;;;;5035644;28;20053;-82
2022/04/07 07:02:53;;;;;;;1.63;1.30;;;;;;;;;;5036613;28;20068;-82
2022/04/07 07:05:18;;;;;;;1.75;1.30;;;;;;;;;;5034521;28;20026;-81
2022/04/07 07:07:43;;;;;;;2.38;1.30;;;;;;;;;;5035498;28;20041;-81
2022/04/07 07:10:08;;;;;;;2.00;1.33;;;;;;;;;;5035873;28;20030;-82
2022/04/07 07:12:34;;;;;;;1.77;1.25;;;;;;;;;;5034459;28;20296;-81
2022/04/07 07:14:59;;;;;;;1.85;1.40;;;;;;;;;;5035848;28;20037;-81
2022/04/07 07:17:24;;;;;;;1.50;1.20;;;;;;;;;;5034412;28;20112;-81
2022/04/07 07:19:49;;;;;;;2.13;1.40;;;;;;;;;;5036129;28;20030;-82
2022/04/07 07:22:15;;;;;;;1.80;1.10;;;;;;;;;;5035516;28;20052;-82
2022/04/07 07:24:40;;;;;;;1.65;1.10;;;;;;;;;;5034125;28;20091;-81
2022/04/07 07:27:05;;;;;;;1.33;0.93;;;;;;;;;;5034778;28;20056;-82
2022/04/07 07:29:30;;;;;;;1.20;1.00;;;;;;;;;;5034182;28;20051;-81
2022/04/07 07:31:56;;;;;;;1.38;1.08;;;;;;;;;;5018436;28;20030;-82
2022/04/07 07:34:21;;;;;;;2.78;1.05;;;;;;;;;;5035310;28;20429;-81
2022/04/07 07:36:46;;;;;;;0.82;0.82;;;;;;;;;;5036229;28;20038;-81
2022/04/07 07:39:11;;;;;;;0.98;0.77;;;;;;;;;;5035980;28;20065;-82
2022/04/07 07:41:38;;;;;;;0.73;0.73;;;;;;;;;;5034429;28;20060;-82
2022/04/07 07:44:03;;;;;;;2.08;0.80;;;;;;;;;;5035010;28;20112;-81
2022/04/07 07:46:30;;;;;;;1.70;0.80;;;;;;;;;;5038180;28;20489;-82
2022/04/07 07:48:55;;;;;;;0.90;0.80;;;;;;;;;;5039945;28;20030;-82
2022/04/07 07:51:20;;;;;;;4.28;0.88;;;;;;;;;;5039702;28;20125;-82
2022/04/07 07:53:46;;;;;;;1.08;0.70;;;;;;;;;;5039781;28;20029;-82
2022/04/07 07:56:11;;;;;;;1.40;1.00;;;;;;;;;;5039495;28;20040;-82
2022/04/07 07:58:36;;;;;;;1.25;0.85;;;;;;;;;;5038921;28;20033;-82
2022/04/07 08:01:02;;;;;;;1.65;0.98;;;;;;;;;;5036620;28;20038;-82
2022/04/07 08:03:27;;;;;;;1.00;0.90;;;;;;;;;;5039286;28;20034;-82
2022/04/07 08:05:52;;;;;;;2.72;1.00;;;;;;;;;;5038840;28;20393;-82
2022/04/07 08:08:18;;;;;;;1.10;0.90;;;;;;;;;;5038780;28;20040;-82
2022/04/07 08:10:43;;;;;;;1.73;1.10;;;;;;;;;;5038052;28;20049;-82
2022/04/07 08:13:08;;;;;;;1.10;1.00;;;;;;;;;;5037668;28;20029;-82
2022/04/07 08:15:34;;;;;;;1.38;1.00;;;;;;;;;;5038054;28;20104;-82
2022/04/07 08:18:00;;;;;;;0.90;0.77;;;;;;;;;;5039092;28;20075;-82
2022/04/07 08:20:26;;;;;;;1.13;0.90;;;;;;;;;;5038651;28;20034;-82
2022/04/07 08:22:51;;;;;;;0.95;0.85;;;;;;;;;;5037616;28;20045;-82
2022/04/07 08:25:19;;;;;;;1.20;0.90;;;;;;;;;;5039877;28;20040;-81
2022/04/07 08:27:45;;;;;;;1.25;0.88;;;;;;;;;;5037707;28;20037;-82
2022/04/07 08:30:10;;;;;;;2.03;0.80;;;;;;;;;;5039237;28;20052;-82
2022/04/07 08:32:35;;;;;;;1.88;0.75;;;;;;;;;;5038245;28;20064;-82
2022/04/07 08:35:01;;;;;;;3.15;0.70;;;;;;;;;;5038673;28;20025;-82
2022/04/07 08:37:26;;;;;;;5.70;0.90;;;;;;;;;;5038501;28;20077;-82
2022/04/07 08:39:51;;;;;;;1.63;1.10;;;;;;;;;;5038234;28;20033;-82
2022/04/07 08:42:16;;;;;;;1.30;0.80;;;;;;;;;;5038020;28;20079;-82
2022/04/07 08:44:42;;;;;;;1.95;0.80;;;;;;;;;;5038060;28;20095;-82
2022/04/07 08:47:07;;;;;;;0.73;0.60;;;;;;;;;;5038237;28;20037;-82
2022/04/07 08:49:32;;;;;;;2.00;0.82;;;;;;;;;;5036588;28;20489;-82
2022/04/07 08:51:57;;;;;;;1.17;0.73;;;;;;;;;;5038066;28;20029;-82
2022/04/07 08:54:23;;;;;;;1.25;0.63;;;;;;;;;;5038023;28;20033;-82
2022/04/07 08:56:48;;;;;;;1.00;0.60;;;;;;;;;;5036545;28;20509;-82
2022/04/07 08:59:13;;;;;;;2.20;0.70;;;;;;;;;;5038402;28;20144;-82
2022/04/07 09:01:39;;;;;;;1.23;0.70;;;;;;;;;;5038415;28;20041;-82
2022/04/07 09:04:04;;;;;;;0.80;0.45;;;;;;;;;;5037550;28;20280;-82
2022/04/07 09:06:29;;;;;;;0.73;0.70;;;;;;;;;;5038266;28;20053;-83
2022/04/07 09:08:54;;;;;;;1.25;0.80;;;;;;;;;;5037670;28;20680;-82
2022/04/07 09:11:21;;;;;;;0.60;0.60;;;;;;;;;;5037930;28;20030;-82
2022/04/07 09:13:46;;;;;;;1.00;0.68;;;;;;;;;;5037179;28;20037;-82
2022/04/07 09:16:12;;;;;;;0.70;0.70;;;;;;;;;;5037532;28;20095;-82
2022/04/07 09:18:38;;;;;;;0.88;0.73;;;;;;;;;;5036075;28;20489;-82
2022/04/07 09:21:03;;;;;;;0.70;0.70;;;;;;;;;;5037692;28;20036;-83
2022/04/07 09:23:28;;;;;;;1.48;0.70;;;;;;;;;;5037629;28;20029;-82
2022/04/07 09:25:53;;;;;;;0.63;0.63;;;;;;;;;;5037838;28;20033;-82
2022/04/07 09:28:19;;;;;;;0.88;0.70;;;;;;;;;;5037619;28;20616;-82
2022/04/07 09:30:44;;;;;;;3.67;0.70;;;;;;;;;;5037770;28;20114;-83
2022/04/07 09:33:09;;;;;;;1.00;0.70;;;;;;;;;;5036661;28;20284;-82
2022/04/07 09:35:34;;;;;;;0.75;0.70;;;;;;;;;;5037371;28;20037;-82
2022/04/07 09:38:00;;;;;;;0.90;0.73;;;;;;;;;;5038045;28;20029;-82
2022/04/07 09:40:25;;;;;;;3.07;0.70;;;;;;;;;;5037854;28;20080;-83
2022/04/07 09:42:50;;;;;;;0.63;0.60;;;;;;;;;;5036546;28;20287;-83
2022/04/07 09:45:19;;;;;;;1.02;0.60;;;;;;;;;;5036333;28;20093;-83
2022/04/07 09:47:44;;;;;;;0.68;0.50;;;;;;;;;;5036711;28;20501;-82
2022/04/07 09:50:10;;;;;;;0.82;0.70;;;;;;;;;;5037099;28;20041;-83
2022/04/07 09:52:35;;;;;;;0.93;0.70;;;;;;;;;;5037815;28;20405;-83
2022/04/07 09:55:00;;;;;;;0.77;0.68;;;;;;;;;;5037506;28;20037;-83
2022/04/07 09:57:25;;;;;;;0.77;0.55;;;;;;;;;;5019685;28;20033;-83
2022/04/07 09:59:51;;;;;;;0.93;0.55;;;;;;;;;;5037210;28;20516;-83
2022/04/07 10:02:16;;;;;;;1.10;0.50;;;;;;;;;;5036506;28;20040;-83
2022/04/07 10:04:41;;;;;;;0.63;0.63;;;;;;;;;;5037068;28;20045;-83
2022/04/07 10:07:09;;;;;;;0.73;0.70;;;;;;;;;;5037633;28;20042;-82
2022/04/07 10:09:34;;;;;;;1.48;0.52;;;;;;;;;;5036865;28;20287;-83
2022/04/07 10:12:02;;;;;;;1.15;0.60;;;;;;;;;;5037447;28;20033;-83
2022/04/07 10:14:27;;;;;;;1.27;0.65;;;;;;;;;;5036089;28;20093;-83
2022/04/07 10:16:52;;;;;;;1.98;0.70;;;;;;;;;;5037318;28;20057;-83
2022/04/07 10:19:18;;;;;;;0.77;0.60;;;;;;;;;;5035948;28;20501;-83
2022/04/07 10:21:43;;;;;;;1.15;0.73;;;;;;;;;;5037536;28;20041;-83
2022/04/07 10:24:08;;;;;;;0.98;0.70;;;;;;;;;;5037339;28;20040;-83
2022/04/07 10:26:33;;;;;;;0.98;0.60;;;;;;;;;;5036665;28;20447;-83
2022/04/07 10:28:59;;;;;;;0.67;0.43;;;;;;;;;;5037041;28;20045;-82
2022/04/07 10:31:25;;;;;;;0.93;0.73;;;;;;;;;;5037739;28;20291;-83
2022/04/07 10:33:50;;;;;;;1.40;0.50;;;;;;;;;;5035651;28;20060;-83
2022/04/07 10:36:15;;;;;;;2.33;0.70;;;;;;;;;;5036711;28;20496;-83
2022/04/07 10:38:44;;;;;;;2.15;0.70;;;;;;;;;;5035601;28;20403;-83
2022/04/07 10:41:09;;;;;;;1.15;0.60;;;;;;;;;;5037238;28;20462;-83
2022/04/07 10:43:40;;;;;;;1.77;0.65;;;;;;;;;;5036740;28;20503;-83
2022/04/07 10:46:06;;;;;;;0.73;0.43;;;;;;;;;;5035528;28;20030;-83
2022/04/07 10:48:34;;;;;;;1.75;0.70;;;;;;;;;;5036255;28;20067;-82
2022/04/07 10:50:59;;;;;;;2.78;0.68;;;;;;;;;;5036948;28;20033;-83
2022/04/07 10:53:24;;;;;;;1.35;0.60;;;;;;;;;;5036583;28;20551;-83
2022/04/07 10:55:50;;;;;;;0.60;0.50;;;;;;;;;;5035087;28;20036;-83
2022/04/07 10:58:15;;;;;;;1.20;0.63;;;;;;;;;;5036291;28;20280;-83
2022/04/07 11:00:40;;;;;;;0.63;0.40;;;;;;;;;;5036510;28;20036;-82
2022/04/07 11:03:05;;;;;;;1.60;0.60;;;;;;;;;;5035542;28;20065;-83
2022/04/07 11:05:31;;;;;;;1.75;0.50;;;;;;;;;;5036476;28;20033;-83
2022/04/07 11:07:56;;;;;;;0.50;0.50;;;;;;;;;;5036506;28;20075;-82
2022/04/07 11:10:22;;;;;;;1.77;0.60;;;;;;;;;;5036618;28;20039;-82
2022/04/07 11:12:47;;;;;;;1.27;0.63;;;;;;;;;;5036431;28;20110;-82
2022/04/07 11:15:12;;;;;;;2.00;0.63;;;;;;;;;;5036291;28;20034;-82
2022/04/07 11:17:37;;;;;;;0.93;0.68;;;;;;;;;;5034977;28;20033;-82
2022/04/07 11:20:03;;;;;;;0.60;0.60;;;;;;;;;;5036075;28;20464;-82
2022/04/07 11:22:29;;;;;;;1.17;0.50;;;;;;;;;;5040939;28;20044;-83
2022/04/07 11:24:54;;;;;;;1.77;0.70;;;;;;;;;;5040324;28;20097;-82
2022/04/07 11:27:19;;;;;;;0.73;0.45;;;;;;;;;;5040258;28;20017;-83
2022/04/07 11:29:44;;;;;;;0.65;0.50;;;;;;;;;;5040195;28;20112;-82
2022/04/07 11:32:10;;;;;;;2.03;0.60;;;;;;;;;;5039343;28;20029;-83
2022/04/07 11:34:35;;;;;;;1.17;0.70;;;;;;;;;;5040151;28;20056;-82
2022/04/07 11:37:00;;;;;;;1.20;0.60;;;;;;;;;;5040183;28;20037;-83
2022/04/07 11:39:25;;;;;;;1.85;0.60;;;;;;;;;;5039481;28;20025;-83
2022/04/07 11:41:52;;;;;;;0.52;0.50;;;;;;;;;;5040472;28;20042;-83
2022/04/07 11:44:19;;;;;;;1.88;0.75;;;;;;;;;;5038872;28;20072;-83
2022/04/07 11:46:44;;;;;;;1.23;0.60;;;;;;;;;;5040648;28;20048;-83
2022/04/07 11:49:11;;;;;;;2.97;0.68;;;;;;;;;;5038751;28;20038;-83
2022/04/07 11:51:37;;;;;;;1.85;0.60;;;;;;;;;;5040127;28;20029;-83
2022/04/07 11:54:03;;;;;;;1.15;0.50;;;;;;;;;;5039357;28;20061;-83
2022/04/07 11:56:31;;;;;;;0.90;0.50;;;;;;;;;;5039503;28;20045;-82
2022/04/07 11:58:56;;;;;;;1.33;0.60;;;;;;;;;;5040062;28;20056;-83
2022/04/07 12:01:21;;;;;;;2.20;0.70;;;;;;;;;;5039739;28;20037;-83
2022/04/07 12:03:47;;;;;;;3.13;0.70;;;;;;;;;;5038362;28;20280;-83
2022/04/07 12:06:13;;;;;;;2.67;0.68;;;;;;;;;;5039741;28;20044;-83
2022/04/07 12:08:38;;;;;;;2.75;0.60;;;;;;;;;;5039495;28;20131;-83
2022/04/07 12:11:05;;;;;;;1.13;0.50;;;;;;;;;;5039499;28;20112;-83
2022/04/07 12:13:31;;;;;;;2.53;0.60;;;;;;;;;;5039919;28;20096;-83
2022/04/07 12:15:56;;;;;;;1.67;0.70;;;;;;;;;;5039424;28;20056;-83
2022/04/07 12:18:21;;;;;;;1.93;0.80;;;;;;;;;;5039300;28;20786;-83
2022/04/07 12:20:46;;;;;;;3.00;0.70;;;;;;;;;;5038431;28;20381;-83
2022/04/07 12:23:11;;;;;;;3.42;0.80;;;;;;;;;;5039476;28;20037;-83
2022/04/07 12:25:37;;;;;;;1.45;0.70;;;;;;;;;;5038627;28;20025;-84
2022/04/07 12:28:02;;;;;;;3.13;0.73;;;;;;;;;;5039820;28;20057;-83
2022/04/07 12:30:27;;;;;;;0.88;0.60;;;;;;;;;;5039049;28;20044;-83
2022/04/07 12:32:52;;;;;;;1.23;0.70;;;;;;;;;;5037720;28;20033;-83
2022/04/07 12:35:18;;;;;;;3.35;0.98;;;;;;;;;;5039085;28;20182;-83
2022/04/07 12:37:43;;;;;;;3.13;0.60;;;;;;;;;;5038632;28;20041;-83
2022/04/07 12:40:08;;;;;;;2.08;0.70;;;;;;;;;;5038700;28;20279;-83
2022/04/07 12:42:34;;;;;;;2.35;0.80;;;;;;;;;;5039037;28;20039;-83
2022/04/07 12:44:59;;;;;;;2.07;0.63;;;;;;;;;;5037776;28;20038;-83
2022/04/07 12:47:27;;;;;;;2.45;0.60;;;;;;;;;;5039965;28;20268;-83
2022/04/07 12:49:52;;;;;;;2.97;0.70;;;;;;;;;;5038805;28;20041;-83
2022/04/07 12:52:19;;;;;;;4.78;1.55;;;;;;;;;;5039533;28;20026;-84
2022/04/07 12:54:44;;;;;;;4.13;0.80;;;;;;;;;;5039070;28;20064;-83
2022/04/07 12:57:10;;;;;;;1.25;0.80;;;;;;;;;;5020661;28;20401;-83
2022/04/07 12:59:35;;;;;;;1.65;0.60;;;;;;;;;;5039101;28;20029;-83
2022/04/07 13:02:01;;;;;;;1.27;0.67;;;;;;;;;;5038565;28;20052;-83
2022/04/07 13:04:26;;;;;;;2.20;0.70;;;;;;;;;;5038298;28;20363;-83
2022/04/07 13:06:54;;;;;;;2.13;0.60;;;;;;;;;;5036935;28;20024;-83
2022/04/07 13:09:22;;;;;;;1.15;0.50;;;;;;;;;;5038568;28;20272;-83
2022/04/07 13:11:48;;;;;;;3.65;0.60;;;;;;;;;;5038467;28;20064;-83
2022/04/07 13:14:13;;;;;;;4.95;0.77;;;;;;;;;;5038161;28;20029;-83
2022/04/07 13:16:39;;;;;;;3.95;0.85;;;;;;;;;;5038532;28;20038;-83
2022/04/07 13:19:04;;;;;;;1.50;0.68;;;;;;;;;;5039104;28;20045;-83
2022/04/07 13:21:29;;;;;;;2.03;0.60;;;;;;;;;;5038120;28;20042;-83
2022/04/07 13:23:54;;;;;;;2.17;0.50;;;;;;;;;;5038207;28;20041;-83
2022/04/07 13:26:20;;;;;;;1.40;0.50;;;;;;;;;;5037966;28;20037;-83
2022/04/07 13:28:45;;;;;;;0.82;0.50;;;;;;;;;;5038256;28;20124;-83
2022/04/07 13:31:10;;;;;;;2.78;0.88;;;;;;;;;;5036385;28;20045;-83
2022/04/07 13:33:35;;;;;;;2.97;0.75;;;;;;;;;;5038438;28;20116;-83
2022/04/07 13:36:01;;;;;;;2.08;0.60;;;;;;;;;;5037810;28;20493;-83
2022/04/07 13:38:26;;;;;;;1.05;0.60;;;;;;;;;;5038690;28;20167;-83
2022/04/07 13:40:52;;;;;;;1.67;0.60;;;;;;;;;;5037980;28;20024;-83
2022/04/07 13:43:17;;;;;;;1.42;0.60;;;;;;;;;;5036844;28;20404;-83
2022/04/07 13:45:44;;;;;;;0.88;0.60;;;;;;;;;;5036662;28;20037;-83
2022/04/07 13:48:11;;;;;;;1.65;0.70;;;;;;;;;;5037789;28;20628;-83
2022/04/07 13:50:36;;;;;;;2.30;0.60;;;;;;;;;;5037960;28;20037;-83
2022/04/07 13:53:02;;;;;;;3.70;0.85;;;;;;;;;;5037467;28;20378;-83
2022/04/07 13:55:29;;;;;;;2.75;0.90;;;;;;;;;;5035446;28;20033;-82
2022/04/07 13:57:55;;;;;;;7.18;0.98;;;;;;;;;;5037113;28;20036;-82
2022/04/07 14:00:20;;;;;;;1.65;0.70;;;;;;;;;;5036111;28;20030;-82
2022/04/07 14:02:45;;;;;;;1.98;0.73;;;;;;;;;;5037211;28;20456;-83
2022/04/07 14:05:11;;;;;;;0.82;0.50;;;;;;;;;;5035872;28;20421;-82
2022/04/07 14:07:36;;;;;;;1.40;0.70;;;;;;;;;;5036162;28;20120;-83
2022/04/07 14:10:01;;;;;;;2.25;0.90;;;;;;;;;;5037018;28;20128;-82
2022/04/07 14:12:27;;;;;;;1.10;0.47;;;;;;;;;;5035512;28;20040;-82
2022/04/07 14:14:52;;;;;;;1.80;0.60;;;;;;;;;;5036967;28;20051;-82
2022/04/07 14:17:17;;;;;;;1.23;0.57;;;;;;;;;;5036137;28;20069;-82
2022/04/07 14:19:43;;;;;;;2.50;0.40;;;;;;;;;;5035536;28;20409;-82
2022/04/07 14:22:08;;;;;;;1.40;0.40;;;;;;;;;;5035810;28;20509;-82
2022/04/07 14:24:33;;;;;;;1.08;0.50;;;;;;;;;;5036824;28;20041;-82
2022/04/07 14:26:59;;;;;;;2.33;0.47;;;;;;;;;;5072994;22;20076;-88
2022/04/07 14:29:24;;;;;;;0.98;0.50;;;;;;;;;;5057495;28;20061;-85
2022/04/07 14:31:49;;;;;;;2.05;0.70;;;;;;;;;;5055203;28;20052;-85